sensor_id;sensor_type;location;lat;lon;timestamp;pressure;altitude;pressure_sealevel;temperature;humidity
21203;BME280;10759;51.982;9.232;2023-02-28T00:01:11;101856.28;;;-0.11;99.31
21203;BME280;10759;51.982;9.232;2023-02-28T00:03:39;101744.53;;;-0.78;99.65
21203;BME280;10759;51.982;9.232;2023-02-28T00:06:07;101823.91;;;-0.37;99.33
21203;BME280;10759;51.982;9.232;2023-02-28T00:08:36;101851.44;;;-0.26;99.24
21203;BME280;10759;51.982;9.232;2023-02-28T00:11:07;101848.88;;;-0.24;98.81
21203;BME280;10759;51.982;9.232;2023-02-28T00:13:39;101848.81;;;-0.26;97.18
21203;BME280;10759;51.982;9.232;2023-02-28T00:16:09;101849.56;;;-0.30;96.97
21203;BME280;10759;51.982;9.232;2023-02-28T00:18:37;101849.56;;;-0.30;97.62
21203;BME280;10759;51.982;9.232;2023-02-28T00:21:06;101714.00;;;-1.01;97.42
21203;BME280;10759;51.982;9.232;2023-02-28T00:23:34;101809.66;;;-0.44;97.50
21203;BME280;10759;51.982;9.232;2023-02-28T00:26:03;101851.53;;;-0.23;96.49
21203;BME280;10759;51.982;9.232;2023-02-28T00:28:32;101847.97;;;-0.25;96.04
21203;BME280;10759;51.982;9.232;2023-02-28T00:31:00;101755.16;;;-0.75;96.09
21203;BME280;10759;51.982;9.232;2023-02-28T00:33:28;101844.25;;;-0.31;96.27
21203;BME280;10759;51.982;9.232;2023-02-28T00:36:04;101846.19;;;-0.26;96.30
21203;BME280;10759;51.982;9.232;2023-02-28T00:38:35;101810.47;;;-0.46;96.11
21203;BME280;10759;51.982;9.232;2023-02-28T00:41:03;101830.00;;;-0.38;96.23
21203;BME280;10759;51.982;9.232;2023-02-28T00:43:34;101837.97;;;-0.36;97.18
21203;BME280;10759;51.982;9.232;2023-02-28T00:46:03;101713.13;;;-1.29;98.39
21203;BME280;10759;51.982;9.232;2023-02-28T00:48:31;101834.63;;;-0.59;97.83
21203;BME280;10759;51.982;9.232;2023-02-28T00:51:00;101775.75;;;-0.90;99.69
21203;BME280;10759;51.982;9.232;2023-02-28T00:53:28;101801.72;;;-0.74;99.52
21203;BME280;10759;51.982;9.232;2023-02-28T00:55:56;101817.97;;;-0.87;99.63
21203;BME280;10759;51.982;9.232;2023-02-28T00:58:25;101849.13;;;-0.74;100.00
21203;BME280;10759;51.982;9.232;2023-02-28T01:00:55;101852.66;;;-0.72;100.00
21203;BME280;10759;51.982;9.232;2023-02-28T01:03:22;101718.09;;;-1.65;100.00
21203;BME280;10759;51.982;9.232;2023-02-28T01:05:50;101817.88;;;-1.17;100.00
21203;BME280;10759;51.982;9.232;2023-02-28T01:08:19;101851.94;;;-0.95;100.00
21203;BME280;10759;51.982;9.232;2023-02-28T01:10:49;101859.19;;;-0.88;100.00
21203;BME280;10759;51.982;9.232;2023-02-28T01:13:17;101859.78;;;-0.96;100.00
21203;BME280;10759;51.982;9.232;2023-02-28T01:15:49;101837.13;;;-1.18;100.00
21203;BME280;10759;51.982;9.232;2023-02-28T01:18:20;101854.03;;;-1.12;100.00
21203;BME280;10759;51.982;9.232;2023-02-28T01:20:48;101855.22;;;-1.02;100.00
21203;BME280;10759;51.982;9.232;2023-02-28T01:23:18;101859.69;;;-0.99;100.00
21203;BME280;10759;51.982;9.232;2023-02-28T01:25:46;101862.22;;;-1.02;100.00
21203;BME280;10759;51.982;9.232;2023-02-28T01:28:14;101865.69;;;-1.03;100.00
21203;BME280;10759;51.982;9.232;2023-02-28T01:30:42;101839.91;;;-1.14;100.00
21203;BME280;10759;51.982;9.232;2023-02-28T01:33:10;101863.81;;;-1.08;100.00
21203;BME280;10759;51.982;9.232;2023-02-28T01:35:39;101859.25;;;-1.13;100.00
21203;BME280;10759;51.982;9.232;2023-02-28T01:38:07;101861.72;;;-1.18;100.00
21203;BME280;10759;51.982;9.232;2023-02-28T01:40:48;101865.88;;;-1.24;100.00
21203;BME280;10759;51.982;9.232;2023-02-28T01:43:21;101853.69;;;-1.21;100.00
21203;BME280;10759;51.982;9.232;2023-02-28T01:45:50;101856.00;;;-1.04;100.00
21203;BME280;10759;51.982;9.232;2023-02-28T01:48:19;101693.47;;;-1.95;100.00
21203;BME280;10759;51.982;9.232;2023-02-28T01:50:49;101841.34;;;-1.23;100.00
21203;BME280;10759;51.982;9.232;2023-02-28T01:53:22;101863.25;;;-1.24;100.00
21203;BME280;10759;51.982;9.232;2023-02-28T01:55:53;101827.34;;;-1.49;100.00
21203;BME280;10759;51.982;9.232;2023-02-28T01:58:21;101851.25;;;-1.42;100.00
21203;BME280;10759;51.982;9.232;2023-02-28T02:00:50;101848.38;;;-1.49;100.00
21203;BME280;10759;51.982;9.232;2023-02-28T02:03:20;101851.00;;;-1.49;100.00
21203;BME280;10759;51.982;9.232;2023-02-28T02:05:49;101831.13;;;-1.67;100.00
21203;BME280;10759;51.982;9.232;2023-02-28T02:08:19;101832.81;;;-1.67;100.00
21203;BME280;10759;51.982;9.232;2023-02-28T02:10:52;101845.31;;;-1.62;100.00
21203;BME280;10759;51.982;9.232;2023-02-28T02:13:33;101710.03;;;-2.47;100.00
21203;BME280;10759;51.982;9.232;2023-02-28T02:16:13;101762.66;;;-2.20;100.00
21203;BME280;10759;51.982;9.232;2023-02-28T02:18:49;101852.59;;;-1.79;100.00
21203;BME280;10759;51.982;9.232;2023-02-28T02:21:34;101845.09;;;-1.68;100.00
21203;BME280;10759;51.982;9.232;2023-02-28T02:27:20;101848.50;;;-1.70;100.00
21203;BME280;10759;51.982;9.232;2023-02-28T02:30:08;101846.66;;;-1.73;100.00
21203;BME280;10759;51.982;9.232;2023-02-28T02:32:50;101839.28;;;-1.83;100.00
21203;BME280;10759;51.982;9.232;2023-02-28T02:35:25;101838.13;;;-1.91;100.00
21203;BME280;10759;51.982;9.232;2023-02-28T02:38:01;101787.97;;;-2.22;100.00
21203;BME280;10759;51.982;9.232;2023-02-28T02:40:38;101829.22;;;-1.95;100.00
21203;BME280;10759;51.982;9.232;2023-02-28T02:43:15;101833.81;;;-1.89;100.00
21203;BME280;10759;51.982;9.232;2023-02-28T02:45:47;101830.69;;;-2.03;100.00
21203;BME280;10759;51.982;9.232;2023-02-28T02:48:19;101830.00;;;-1.98;100.00
21203;BME280;10759;51.982;9.232;2023-02-28T02:50:53;101822.34;;;-1.91;100.00
21203;BME280;10759;51.982;9.232;2023-02-28T02:53:26;101831.75;;;-1.98;100.00
21203;BME280;10759;51.982;9.232;2023-02-28T02:55:56;101826.13;;;-2.09;100.00
21203;BME280;10759;51.982;9.232;2023-02-28T02:58:29;101822.53;;;-2.11;100.00
21203;BME280;10759;51.982;9.232;2023-02-28T03:01:01;101831.13;;;-2.15;100.00
21203;BME280;10759;51.982;9.232;2023-02-28T03:03:31;101817.53;;;-2.27;100.00
21203;BME280;10759;51.982;9.232;2023-02-28T03:06:03;101831.34;;;-2.33;100.00
21203;BME280;10759;51.982;9.232;2023-02-28T03:08:34;101820.19;;;-2.50;100.00
21203;BME280;10759;51.982;9.232;2023-02-28T03:11:05;101795.09;;;-2.66;100.00
21203;BME280;10759;51.982;9.232;2023-02-28T03:13:52;101840.25;;;-2.52;100.00
21203;BME280;10759;51.982;9.232;2023-02-28T03:16:35;101834.88;;;-2.55;100.00
21203;BME280;10759;51.982;9.232;2023-02-28T03:19:23;101833.25;;;-2.51;100.00
21203;BME280;10759;51.982;9.232;2023-02-28T03:22:02;101826.16;;;-2.54;100.00
21203;BME280;10759;51.982;9.232;2023-02-28T03:24:40;101631.94;;;-3.70;100.00
21203;BME280;10759;51.982;9.232;2023-02-28T03:27:17;101814.41;;;-2.64;100.00
21203;BME280;10759;51.982;9.232;2023-02-28T03:29:51;101827.06;;;-2.76;100.00
21203;BME280;10759;51.982;9.232;2023-02-28T03:32:27;101831.31;;;-2.79;100.00
21203;BME280;10759;51.982;9.232;2023-02-28T03:35:00;101831.19;;;-2.83;100.00
21203;BME280;10759;51.982;9.232;2023-02-28T03:37:35;101829.53;;;-2.81;100.00
21203;BME280;10759;51.982;9.232;2023-02-28T03:40:08;101832.31;;;-2.76;100.00
21203;BME280;10759;51.982;9.232;2023-02-28T03:42:43;101834.88;;;-2.77;100.00
21203;BME280;10759;51.982;9.232;2023-02-28T03:45:15;101813.22;;;-2.94;100.00
21203;BME280;10759;51.982;9.232;2023-02-28T03:47:47;101834.00;;;-2.78;100.00
21203;BME280;10759;51.982;9.232;2023-02-28T03:50:18;101792.78;;;-3.24;100.00
21203;BME280;10759;51.982;9.232;2023-02-28T03:52:53;101830.75;;;-2.93;100.00
21203;BME280;10759;51.982;9.232;2023-02-28T03:55:28;101832.78;;;-2.86;100.00
21203;BME280;10759;51.982;9.232;2023-02-28T03:58:03;101777.84;;;-3.04;100.00
21203;BME280;10759;51.982;9.232;2023-02-28T04:00:36;101832.31;;;-2.76;100.00
21203;BME280;10759;51.982;9.232;2023-02-28T04:03:05;101829.88;;;-2.71;100.00
21203;BME280;10759;51.982;9.232;2023-02-28T04:05:46;101831.59;;;-2.72;100.00
21203;BME280;10759;51.982;9.232;2023-02-28T04:08:17;101796.78;;;-2.90;100.00
21203;BME280;10759;51.982;9.232;2023-02-28T04:10:48;101796.94;;;-2.86;100.00
21203;BME280;10759;51.982;9.232;2023-02-28T04:13:17;101828.91;;;-2.73;100.00
21203;BME280;10759;51.982;9.232;2023-02-28T04:15:45;101827.72;;;-2.82;100.00
21203;BME280;10759;51.982;9.232;2023-02-28T04:18:13;101794.44;;;-3.05;100.00
21203;BME280;10759;51.982;9.232;2023-02-28T04:20:41;101807.19;;;-2.92;100.00
21203;BME280;10759;51.982;9.232;2023-02-28T04:23:09;101801.94;;;-2.92;100.00
21203;BME280;10759;51.982;9.232;2023-02-28T04:25:38;101837.63;;;-2.74;100.00
21203;BME280;10759;51.982;9.232;2023-02-28T04:28:07;101835.84;;;-2.75;100.00
21203;BME280;10759;51.982;9.232;2023-02-28T04:30:34;101804.56;;;-2.92;100.00
21203;BME280;10759;51.982;9.232;2023-02-28T04:33:02;101821.47;;;-2.85;100.00
21203;BME280;10759;51.982;9.232;2023-02-28T04:35:31;101828.41;;;-2.86;100.00
21203;BME280;10759;51.982;9.232;2023-02-28T04:37:59;101841.88;;;-2.99;100.00
21203;BME280;10759;51.982;9.232;2023-02-28T04:40:27;101842.56;;;-3.05;100.00
21203;BME280;10759;51.982;9.232;2023-02-28T04:42:56;101801.44;;;-3.27;100.00
21203;BME280;10759;51.982;9.232;2023-02-28T04:45:24;101756.06;;;-3.47;100.00
21203;BME280;10759;51.982;9.232;2023-02-28T04:47:52;101849.28;;;-2.89;100.00
21203;BME280;10759;51.982;9.232;2023-02-28T04:50:20;101849.66;;;-2.79;100.00
21203;BME280;10759;51.982;9.232;2023-02-28T04:52:48;101852.78;;;-2.67;100.00
21203;BME280;10759;51.982;9.232;2023-02-28T04:55:15;101851.13;;;-2.65;100.00
21203;BME280;10759;51.982;9.232;2023-02-28T04:57:43;101834.13;;;-2.75;100.00
21203;BME280;10759;51.982;9.232;2023-02-28T05:00:13;101849.31;;;-2.66;100.00
21203;BME280;10759;51.982;9.232;2023-02-28T05:02:43;101848.31;;;-2.70;100.00
21203;BME280;10759;51.982;9.232;2023-02-28T05:05:11;101823.53;;;-2.76;100.00
21203;BME280;10759;51.982;9.232;2023-02-28T05:07:44;101821.75;;;-2.77;100.00
21203;BME280;10759;51.982;9.232;2023-02-28T05:10:12;101852.06;;;-2.63;100.00
21203;BME280;10759;51.982;9.232;2023-02-28T05:12:40;101853.66;;;-2.67;100.00
21203;BME280;10759;51.982;9.232;2023-02-28T05:15:13;101859.78;;;-2.89;100.00
21203;BME280;10759;51.982;9.232;2023-02-28T05:17:42;101736.16;;;-3.62;100.00
21203;BME280;10759;51.982;9.232;2023-02-28T05:20:11;101816.50;;;-3.21;100.00
21203;BME280;10759;51.982;9.232;2023-02-28T05:22:42;101684.94;;;-3.98;100.00
21203;BME280;10759;51.982;9.232;2023-02-28T05:25:13;101858.31;;;-3.03;100.00
21203;BME280;10759;51.982;9.232;2023-02-28T05:27:43;101853.03;;;-3.05;100.00
21203;BME280;10759;51.982;9.232;2023-02-28T05:30:11;101741.63;;;-3.79;100.00
21203;BME280;10759;51.982;9.232;2023-02-28T05:32:41;101825.53;;;-3.35;100.00
21203;BME280;10759;51.982;9.232;2023-02-28T05:35:10;101857.78;;;-3.17;100.00
21203;BME280;10759;51.982;9.232;2023-02-28T05:37:39;101841.91;;;-3.41;100.00
21203;BME280;10759;51.982;9.232;2023-02-28T05:40:08;101865.06;;;-3.31;100.00
21203;BME280;10759;51.982;9.232;2023-02-28T05:42:37;101861.09;;;-3.42;100.00
21203;BME280;10759;51.982;9.232;2023-02-28T05:45:06;101837.94;;;-3.52;100.00
21203;BME280;10759;51.982;9.232;2023-02-28T05:47:35;101871.72;;;-3.39;100.00
21203;BME280;10759;51.982;9.232;2023-02-28T05:50:05;101740.59;;;-4.23;100.00
21203;BME280;10759;51.982;9.232;2023-02-28T05:52:33;101869.03;;;-3.40;100.00
21203;BME280;10759;51.982;9.232;2023-02-28T05:55:01;101850.66;;;-3.61;100.00
21203;BME280;10759;51.982;9.232;2023-02-28T05:57:29;101869.41;;;-3.72;100.00
21203;BME280;10759;51.982;9.232;2023-02-28T05:59:57;101870.06;;;-3.37;100.00
21203;BME280;10759;51.982;9.232;2023-02-28T06:02:25;101854.31;;;-3.58;100.00
21203;BME280;10759;51.982;9.232;2023-02-28T06:04:53;101857.59;;;-3.62;100.00
21203;BME280;10759;51.982;9.232;2023-02-28T06:07:22;101873.25;;;-3.44;100.00
21203;BME280;10759;51.982;9.232;2023-02-28T06:09:50;101882.66;;;-3.49;100.00
21203;BME280;10759;51.982;9.232;2023-02-28T06:12:18;101878.78;;;-3.57;100.00
21203;BME280;10759;51.982;9.232;2023-02-28T06:14:46;101878.22;;;-3.50;100.00
21203;BME280;10759;51.982;9.232;2023-02-28T06:17:14;101884.63;;;-3.43;100.00
21203;BME280;10759;51.982;9.232;2023-02-28T06:19:41;101892.63;;;-3.40;100.00
21203;BME280;10759;51.982;9.232;2023-02-28T06:22:09;101891.94;;;-3.36;100.00
21203;BME280;10759;51.982;9.232;2023-02-28T06:24:39;101889.78;;;-3.45;100.00
21203;BME280;10759;51.982;9.232;2023-02-28T06:27:06;101893.06;;;-3.51;100.00
21203;BME280;10759;51.982;9.232;2023-02-28T06:29:35;101889.53;;;-3.51;100.00
21203;BME280;10759;51.982;9.232;2023-02-28T06:32:06;101897.06;;;-3.59;100.00
21203;BME280;10759;51.982;9.232;2023-02-28T06:34:34;101858.66;;;-3.58;100.00
21203;BME280;10759;51.982;9.232;2023-02-28T06:37:03;101895.44;;;-3.36;100.00
21203;BME280;10759;51.982;9.232;2023-02-28T06:39:31;101895.31;;;-3.18;100.00
21203;BME280;10759;51.982;9.232;2023-02-28T06:42:00;101892.19;;;-3.09;100.00
21203;BME280;10759;51.982;9.232;2023-02-28T06:44:28;101901.38;;;-2.77;100.00
21203;BME280;10759;51.982;9.232;2023-02-28T06:47:02;101896.38;;;-2.71;100.00
21203;BME280;10759;51.982;9.232;2023-02-28T06:49:31;101909.94;;;-2.81;100.00
21203;BME280;10759;51.982;9.232;2023-02-28T06:51:59;101909.34;;;-2.75;100.00
21203;BME280;10759;51.982;9.232;2023-02-28T06:54:27;101897.91;;;-2.76;100.00
21203;BME280;10759;51.982;9.232;2023-02-28T06:56:55;101905.56;;;-2.82;100.00
21203;BME280;10759;51.982;9.232;2023-02-28T06:59:24;101910.03;;;-2.79;100.00
21203;BME280;10759;51.982;9.232;2023-02-28T07:01:52;101818.41;;;-3.39;100.00
21203;BME280;10759;51.982;9.232;2023-02-28T07:04:21;101904.94;;;-2.97;100.00
21203;BME280;10759;51.982;9.232;2023-02-28T07:06:49;101745.97;;;-3.99;100.00
21203;BME280;10759;51.982;9.232;2023-02-28T07:09:17;101896.78;;;-3.04;100.00
21203;BME280;10759;51.982;9.232;2023-02-28T07:11:45;101918.59;;;-2.84;100.00
21203;BME280;10759;51.982;9.232;2023-02-28T07:14:13;101831.25;;;-3.25;100.00
21203;BME280;10759;51.982;9.232;2023-02-28T07:16:42;101922.19;;;-2.82;100.00
21203;BME280;10759;51.982;9.232;2023-02-28T07:19:12;101911.31;;;-2.91;100.00
21203;BME280;10759;51.982;9.232;2023-02-28T07:21:39;101917.81;;;-2.81;100.00
21203;BME280;10759;51.982;9.232;2023-02-28T07:24:07;101915.75;;;-2.90;100.00
21203;BME280;10759;51.982;9.232;2023-02-28T07:26:35;101921.59;;;-2.74;100.00
21203;BME280;10759;51.982;9.232;2023-02-28T07:29:04;101918.97;;;-2.74;100.00
21203;BME280;10759;51.982;9.232;2023-02-28T07:31:32;101831.88;;;-3.30;100.00
21203;BME280;10759;51.982;9.232;2023-02-28T07:34:01;101929.34;;;-2.77;100.00
21203;BME280;10759;51.982;9.232;2023-02-28T07:36:30;101847.25;;;-2.96;100.00
21203;BME280;10759;51.982;9.232;2023-02-28T07:38:58;101925.94;;;-2.31;100.00
21203;BME280;10759;51.982;9.232;2023-02-28T07:41:26;101930.25;;;-2.33;100.00
21203;BME280;10759;51.982;9.232;2023-02-28T07:43:57;101936.91;;;-2.42;100.00
21203;BME280;10759;51.982;9.232;2023-02-28T07:46:26;101929.03;;;-2.19;100.00
21203;BME280;10759;51.982;9.232;2023-02-28T07:48:56;101932.47;;;-1.98;100.00
21203;BME280;10759;51.982;9.232;2023-02-28T07:51:27;101930.56;;;-1.79;100.00
21203;BME280;10759;51.982;9.232;2023-02-28T07:53:56;101918.53;;;-1.97;100.00
21203;BME280;10759;51.982;9.232;2023-02-28T07:56:24;101932.59;;;-1.72;100.00
21203;BME280;10759;51.982;9.232;2023-02-28T07:58:52;101930.94;;;-1.44;100.00
21203;BME280;10759;51.982;9.232;2023-02-28T08:01:20;101930.78;;;-1.49;100.00
21203;BME280;10759;51.982;9.232;2023-02-28T08:03:48;101921.59;;;-1.60;100.00
21203;BME280;10759;51.982;9.232;2023-02-28T08:06:20;101926.50;;;-1.45;100.00
21203;BME280;10759;51.982;9.232;2023-02-28T08:08:50;101920.97;;;-1.29;100.00
21203;BME280;10759;51.982;9.232;2023-02-28T08:11:19;101855.94;;;-1.59;100.00
21203;BME280;10759;51.982;9.232;2023-02-28T08:13:46;101928.31;;;-1.19;100.00
21203;BME280;10759;51.982;9.232;2023-02-28T08:16:15;101912.84;;;-1.10;100.00
21203;BME280;10759;51.982;9.232;2023-02-28T08:18:48;101924.75;;;-0.95;100.00
21203;BME280;10759;51.982;9.232;2023-02-28T08:21:17;101938.09;;;-0.89;100.00
21203;BME280;10759;51.982;9.232;2023-02-28T08:23:46;101931.88;;;-0.91;100.00
21203;BME280;10759;51.982;9.232;2023-02-28T08:26:16;101892.34;;;-1.20;100.00
21203;BME280;10759;51.982;9.232;2023-02-28T08:28:45;101924.41;;;-0.79;100.00
21203;BME280;10759;51.982;9.232;2023-02-28T08:31:14;101925.66;;;-0.68;100.00
21203;BME280;10759;51.982;9.232;2023-02-28T08:33:43;101934.09;;;-0.51;100.00
21203;BME280;10759;51.982;9.232;2023-02-28T08:36:12;101919.75;;;-0.60;100.00
21203;BME280;10759;51.982;9.232;2023-02-28T08:38:40;101901.31;;;-0.60;100.00
21203;BME280;10759;51.982;9.232;2023-02-28T08:41:10;101942.09;;;-0.48;100.00
21203;BME280;10759;51.982;9.232;2023-02-28T08:43:42;101933.41;;;-0.45;100.00
21203;BME280;10759;51.982;9.232;2023-02-28T08:46:12;101870.41;;;-0.66;100.00
21203;BME280;10759;51.982;9.232;2023-02-28T08:48:40;101909.31;;;-0.29;100.00
21203;BME280;10759;51.982;9.232;2023-02-28T08:51:10;101933.34;;;-0.19;98.46
21203;BME280;10759;51.982;9.232;2023-02-28T08:53:39;101932.63;;;-0.14;97.52
21203;BME280;10759;51.982;9.232;2023-02-28T08:56:09;101921.47;;;-0.34;96.63
21203;BME280;10759;51.982;9.232;2023-02-28T08:58:37;101929.28;;;-0.08;97.80
21203;BME280;10759;51.982;9.232;2023-02-28T09:01:12;101923.84;;;0.16;97.55
21203;BME280;10759;51.982;9.232;2023-02-28T09:03:41;101927.41;;;0.18;95.17
21203;BME280;10759;51.982;9.232;2023-02-28T09:06:10;101931.94;;;0.54;95.34
21203;BME280;10759;51.982;9.232;2023-02-28T09:08:38;101929.16;;;0.81;92.69
21203;BME280;10759;51.982;9.232;2023-02-28T09:11:06;101923.59;;;0.70;91.24
21203;BME280;10759;51.982;9.232;2023-02-28T09:13:35;101924.72;;;0.80;90.66
21203;BME280;10759;51.982;9.232;2023-02-28T09:16:05;101910.66;;;0.81;90.58
21203;BME280;10759;51.982;9.232;2023-02-28T09:18:35;101926.94;;;0.98;91.64
21203;BME280;10759;51.982;9.232;2023-02-28T09:21:04;101868.81;;;0.61;90.54
21203;BME280;10759;51.982;9.232;2023-02-28T09:23:32;101937.69;;;1.04;89.93
21203;BME280;10759;51.982;9.232;2023-02-28T09:26:00;101938.81;;;1.14;90.72
21203;BME280;10759;51.982;9.232;2023-02-28T09:28:28;101932.97;;;1.27;90.20
21203;BME280;10759;51.982;9.232;2023-02-28T09:30:57;101942.66;;;1.26;87.06
21203;BME280;10759;51.982;9.232;2023-02-28T09:33:26;101944.72;;;1.40;88.86
21203;BME280;10759;51.982;9.232;2023-02-28T09:36:00;101901.03;;;1.18;87.96
21203;BME280;10759;51.982;9.232;2023-02-28T09:38:28;101940.44;;;1.43;88.86
21203;BME280;10759;51.982;9.232;2023-02-28T09:40:58;101946.72;;;1.50;89.83
21203;BME280;10759;51.982;9.232;2023-02-28T09:43:29;101938.19;;;1.60;87.93
21203;BME280;10759;51.982;9.232;2023-02-28T09:46:04;101915.75;;;1.08;86.39
21203;BME280;10759;51.982;9.232;2023-02-28T09:48:35;101937.56;;;1.34;86.32
21203;BME280;10759;51.982;9.232;2023-02-28T09:51:20;101943.19;;;1.48;87.60
21203;BME280;10759;51.982;9.232;2023-02-28T09:53:52;101935.91;;;1.39;83.17
21203;BME280;10759;51.982;9.232;2023-02-28T09:56:33;101935.81;;;1.35;84.06
21203;BME280;10759;51.982;9.232;2023-02-28T09:59:10;101932.69;;;1.51;82.00
21203;BME280;10759;51.982;9.232;2023-02-28T10:01:49;101832.78;;;0.97;81.58
21203;BME280;10759;51.982;9.232;2023-02-28T10:04:35;101941.03;;;1.68;81.32
21203;BME280;10759;51.982;9.232;2023-02-28T10:07:13;101929.22;;;1.54;82.49
21203;BME280;10759;51.982;9.232;2023-02-28T10:09:48;101945.84;;;1.48;81.28
21203;BME280;10759;51.982;9.232;2023-02-28T10:12:19;101937.09;;;1.50;84.34
21203;BME280;10759;51.982;9.232;2023-02-28T10:14:49;101935.44;;;1.56;83.58
21203;BME280;10759;51.982;9.232;2023-02-28T10:17:21;101931.56;;;1.79;83.95
21203;BME280;10759;51.982;9.232;2023-02-28T10:19:58;101936.81;;;2.17;84.02
21203;BME280;10759;51.982;9.232;2023-02-28T10:22:34;101932.28;;;2.11;82.63
21203;BME280;10759;51.982;9.232;2023-02-28T10:25:16;101904.34;;;2.26;84.45
21203;BME280;10759;51.982;9.232;2023-02-28T10:27:45;101937.69;;;2.60;82.53
21203;BME280;10759;51.982;9.232;2023-02-28T10:30:13;101933.63;;;2.79;80.80
21203;BME280;10759;51.982;9.232;2023-02-28T10:32:48;101926.84;;;2.48;78.38
21203;BME280;10759;51.982;9.232;2023-02-28T10:35:19;101927.97;;;2.59;81.94
21203;BME280;10759;51.982;9.232;2023-02-28T10:37:50;101931.06;;;2.84;80.64
21203;BME280;10759;51.982;9.232;2023-02-28T10:40:28;101928.47;;;2.40;78.51
21203;BME280;10759;51.982;9.232;2023-02-28T10:42:58;101930.75;;;2.23;79.94
21203;BME280;10759;51.982;9.232;2023-02-28T10:45:28;101916.00;;;2.34;81.54
21203;BME280;10759;51.982;9.232;2023-02-28T10:47:59;101929.63;;;2.54;81.16
21203;BME280;10759;51.982;9.232;2023-02-28T10:50:33;101917.97;;;2.46;81.09
21203;BME280;10759;51.982;9.232;2023-02-28T10:53:30;101927.81;;;2.51;80.74
21203;BME280;10759;51.982;9.232;2023-02-28T10:56:15;101920.31;;;2.74;81.01
21203;BME280;10759;51.982;9.232;2023-02-28T10:58:50;101919.47;;;2.77;80.49
21203;BME280;10759;51.982;9.232;2023-02-28T11:01:21;101911.72;;;2.88;78.17
21203;BME280;10759;51.982;9.232;2023-02-28T11:03:49;101912.69;;;2.91;77.65
21203;BME280;10759;51.982;9.232;2023-02-28T11:06:20;101880.59;;;2.74;77.71
21203;BME280;10759;51.982;9.232;2023-02-28T11:08:52;101910.09;;;2.96;75.93
21203;BME280;10759;51.982;9.232;2023-02-28T11:11:22;101914.81;;;3.14;74.86
21203;BME280;10759;51.982;9.232;2023-02-28T11:13:53;101901.63;;;3.15;75.49
21203;BME280;10759;51.982;9.232;2023-02-28T11:16:31;101908.16;;;3.37;72.15
21203;BME280;10759;51.982;9.232;2023-02-28T11:19:01;101901.53;;;3.12;68.97
21203;BME280;10759;51.982;9.232;2023-02-28T11:21:31;101904.28;;;3.17;66.87
21203;BME280;10759;51.982;9.232;2023-02-28T11:24:04;101804.91;;;2.86;66.78
21203;BME280;10759;51.982;9.232;2023-02-28T11:26:41;101874.41;;;3.26;63.63
21203;BME280;10759;51.982;9.232;2023-02-28T11:29:11;101904.50;;;3.31;59.81
21203;BME280;10759;51.982;9.232;2023-02-28T11:31:39;101895.84;;;3.41;59.64
21203;BME280;10759;51.982;9.232;2023-02-28T11:34:24;101896.06;;;3.55;61.91
21203;BME280;10759;51.982;9.232;2023-02-28T11:36:54;101894.47;;;3.68;61.98
21203;BME280;10759;51.982;9.232;2023-02-28T11:39:25;101880.94;;;3.49;59.76
21203;BME280;10759;51.982;9.232;2023-02-28T11:42:11;101880.69;;;3.34;57.91
21203;BME280;10759;51.982;9.232;2023-02-28T11:45:01;101880.06;;;3.50;58.50
21203;BME280;10759;51.982;9.232;2023-02-28T11:47:35;101731.75;;;2.39;55.89
21203;BME280;10759;51.982;9.232;2023-02-28T11:50:16;101860.47;;;3.37;55.72
21203;BME280;10759;51.982;9.232;2023-02-28T11:52:52;101876.47;;;3.45;54.52
21203;BME280;10759;51.982;9.232;2023-02-28T11:55:25;101867.41;;;3.93;56.24
21203;BME280;10759;51.982;9.232;2023-02-28T11:58:17;101848.97;;;4.05;54.39
21203;BME280;10759;51.982;9.232;2023-02-28T12:00:58;101853.19;;;3.86;54.04
21203;BME280;10759;51.982;9.232;2023-02-28T12:03:34;101852.38;;;3.92;57.68
21203;BME280;10759;51.982;9.232;2023-02-28T12:06:16;101845.91;;;3.73;52.50
21203;BME280;10759;51.982;9.232;2023-02-28T12:08:58;101850.22;;;3.63;52.76
21203;BME280;10759;51.982;9.232;2023-02-28T12:11:50;101842.59;;;3.88;52.92
21203;BME280;10759;51.982;9.232;2023-02-28T12:14:44;101819.41;;;3.72;52.82
21203;BME280;10759;51.982;9.232;2023-02-28T12:17:22;101830.09;;;3.81;53.67
21203;BME280;10759;51.982;9.232;2023-02-28T12:20:00;101838.09;;;3.82;53.66
21203;BME280;10759;51.982;9.232;2023-02-28T12:22:31;101833.53;;;3.71;53.72
21203;BME280;10759;51.982;9.232;2023-02-28T12:25:21;101829.03;;;3.65;52.84
21203;BME280;10759;51.982;9.232;2023-02-28T12:27:51;101830.22;;;3.90;55.53
21203;BME280;10759;51.982;9.232;2023-02-28T12:30:23;101828.56;;;3.97;52.80
21203;BME280;10759;51.982;9.232;2023-02-28T12:32:55;101829.31;;;3.88;52.94
21203;BME280;10759;51.982;9.232;2023-02-28T12:35:26;101820.75;;;4.09;53.55
21203;BME280;10759;51.982;9.232;2023-02-28T12:38:03;101828.56;;;3.97;53.18
21203;BME280;10759;51.982;9.232;2023-02-28T12:40:42;101811.72;;;3.96;52.86
21203;BME280;10759;51.982;9.232;2023-02-28T12:43:13;101808.72;;;3.65;52.84
21203;BME280;10759;51.982;9.232;2023-02-28T12:45:46;101792.06;;;3.77;53.18
21203;BME280;10759;51.982;9.232;2023-02-28T12:48:20;101801.00;;;3.84;53.30
21203;BME280;10759;51.982;9.232;2023-02-28T12:50:51;101776.91;;;3.69;52.68
21203;BME280;10759;51.982;9.232;2023-02-28T12:53:25;101773.44;;;3.73;51.78
21203;BME280;10759;51.982;9.232;2023-02-28T12:56:02;101816.22;;;3.99;52.56
21203;BME280;10759;51.982;9.232;2023-02-28T12:58:39;101806.31;;;3.85;51.52
21203;BME280;10759;51.982;9.232;2023-02-28T13:01:23;101802.16;;;4.07;52.06
21203;BME280;10759;51.982;9.232;2023-02-28T13:07:05;101783.34;;;3.87;51.38
21203;BME280;10759;51.982;9.232;2023-02-28T13:09:38;101797.69;;;4.05;49.95
21203;BME280;10759;51.982;9.232;2023-02-28T13:12:13;101793.06;;;3.88;50.98
21203;BME280;10759;51.982;9.232;2023-02-28T13:14:43;101766.16;;;3.56;51.56
21203;BME280;10759;51.982;9.232;2023-02-28T13:17:14;101794.94;;;3.96;51.86